createdAt,value
2019-04-10T00:00:24.827Z,10.08
2019-04-10T00:01:25.680Z,10.08
2019-04-10T00:02:25.622Z,10.08
2019-04-10T00:03:32.357Z,10.19
2019-04-10T00:04:25.212Z,10.15
2019-04-10T00:05:45.338Z,10.10
2019-04-10T00:06:24.253Z,10.16
2019-04-10T00:07:24.257Z,10.06
2019-04-10T00:08:24.158Z,10.11
2019-04-10T00:09:25.053Z,10.21
2019-04-10T00:10:23.933Z,10.16
2019-04-10T00:11:45.130Z,10.19
2019-04-10T00:12:23.788Z,10.16
2019-04-10T00:13:24.644Z,10.18
2019-04-10T00:14:24.095Z,10.11
2019-04-10T00:15:24.351Z,10.10
2019-04-10T00:16:24.413Z,10.10
2019-04-10T00:17:45.081Z,10.13
2019-04-10T00:18:24.154Z,10.10
2019-04-10T00:19:23.312Z,10.07
2019-04-10T00:20:23.159Z,10.03
2019-04-10T00:21:23.084Z,10.11
2019-04-10T00:22:22.995Z,10.15
2019-04-10T00:23:43.920Z,10.10
2019-04-10T00:24:23.806Z,10.08
2019-04-10T00:25:22.771Z,10.04
2019-04-10T00:26:23.710Z,10.01
2019-04-10T00:27:22.780Z,10.10
2019-04-10T00:28:23.382Z,10.10
2019-04-10T00:29:44.589Z,9.93
2019-04-10T00:30:22.363Z,9.88
2019-04-10T00:31:23.014Z,9.97
2019-04-10T00:32:22.279Z,9.88
2019-04-10T00:33:22.890Z,9.96
2019-04-10T00:34:23.085Z,9.90
2019-04-10T00:35:43.737Z,9.97
2019-04-10T00:36:22.004Z,9.93
2019-04-10T00:37:26.824Z,9.88
2019-04-10T00:38:21.853Z,10.00
2019-04-10T00:39:22.296Z,9.92
2019-04-10T00:40:21.621Z,9.85
2019-04-10T00:41:42.483Z,9.86
2019-04-10T00:42:21.527Z,9.78
2019-04-10T00:43:22.474Z,9.78
2019-04-10T00:44:21.618Z,9.89
2019-04-10T00:45:21.663Z,9.83
2019-04-10T00:46:22.088Z,9.82
2019-04-10T00:47:42.010Z,9.85
2019-04-10T00:48:21.057Z,9.83
2019-04-10T00:49:21.810Z,9.83
2019-04-10T00:50:20.865Z,9.86
2019-04-10T00:51:21.344Z,9.83
2019-04-10T00:52:21.788Z,9.79
2019-04-10T00:53:41.536Z,9.85
2019-04-10T00:54:21.627Z,9.65
2019-04-10T00:55:20.394Z,9.75
2019-04-10T00:56:20.760Z,9.74
2019-04-10T00:57:21.242Z,9.70
2019-04-10T00:58:20.408Z,9.75
2019-04-10T00:59:42.074Z,9.70
2019-04-10T01:00:21.840Z,9.70
2019-04-10T01:01:19.920Z,9.72
2019-04-10T01:02:20.619Z,9.67
2019-04-10T01:03:19.771Z,9.68
2019-04-10T01:04:20.361Z,9.65
2019-04-10T01:05:41.467Z,9.65
2019-04-10T01:06:19.913Z,9.68
2019-04-10T01:07:32.425Z,9.65
2019-04-10T01:08:20.252Z,9.71
2019-04-10T01:09:19.511Z,9.70
2019-04-10T01:10:19.895Z,9.67
2019-04-10T01:11:41.323Z,9.63
2019-04-10T01:12:19.490Z,9.63
2019-04-10T01:13:19.103Z,9.58
2019-04-10T01:14:18.905Z,9.64
2019-04-10T01:15:18.886Z,9.61
2019-04-10T01:16:19.550Z,9.55
2019-04-10T01:17:40.230Z,9.50
2019-04-10T01:18:19.200Z,9.49
2019-04-10T01:19:19.570Z,9.53
2019-04-10T01:20:19.571Z,9.55
2019-04-10T01:21:18.351Z,9.55
2019-04-10T01:22:19.035Z,9.49
2019-04-10T01:23:39.360Z,9.50
2019-04-10T01:24:18.124Z,9.47
2019-04-10T01:25:18.665Z,9.40
2019-04-10T01:26:19.026Z,9.38
2019-04-10T01:27:18.038Z,9.37
2019-04-10T01:28:17.857Z,9.37
2019-04-10T01:29:39.810Z,9.40
2019-04-10T01:30:18.086Z,9.34
2019-04-10T01:31:17.554Z,9.31
2019-04-10T01:32:17.573Z,9.35
2019-04-10T01:33:17.403Z,9.32
2019-04-10T01:34:17.390Z,9.29
2019-04-10T01:35:38.366Z,9.28
2019-04-10T01:36:17.167Z,9.25
2019-04-10T01:37:17.084Z,9.24
2019-04-10T01:38:17.567Z,9.12
2019-04-10T01:39:17.909Z,9.24
2019-04-10T01:40:17.131Z,9.25
2019-04-10T01:41:37.746Z,9.20
2019-04-10T01:42:16.716Z,9.14
2019-04-10T01:43:19.639Z,9.16
2019-04-10T01:44:16.638Z,9.19
2019-04-10T01:45:17.422Z,9.12
2019-04-10T01:46:16.446Z,9.05
2019-04-10T01:47:37.328Z,9.03
2019-04-10T01:48:16.252Z,9.02
2019-04-10T01:49:16.140Z,9.02
2019-04-10T01:50:16.158Z,9.03
2019-04-10T01:51:16.928Z,9.03
2019-04-10T01:52:15.974Z,9.03
2019-04-10T01:53:37.681Z,9.02
2019-04-10T01:54:15.782Z,9.06
2019-04-10T01:55:23.891Z,9.02
2019-04-10T01:56:22.861Z,9.00
2019-04-10T01:57:16.432Z,9.05
2019-04-10T01:58:15.430Z,8.98
2019-04-10T01:59:36.324Z,8.95
2019-04-10T02:00:15.325Z,8.88
2019-04-10T02:01:15.182Z,8.93
2019-04-10T02:02:15.226Z,8.87
2019-04-10T02:03:15.968Z,8.77
2019-04-10T02:04:15.033Z,8.85
2019-04-10T02:05:36.609Z,8.73
2019-04-10T02:06:14.845Z,8.73
2019-04-10T02:07:14.714Z,8.61
2019-04-10T02:08:17.162Z,8.65
2019-04-10T02:09:15.047Z,8.61
2019-04-10T02:10:14.562Z,8.48
2019-04-10T02:11:35.372Z,8.54
2019-04-10T02:12:14.562Z,8.51
2019-04-10T02:13:14.919Z,8.55
2019-04-10T02:14:14.181Z,8.55
2019-04-10T02:15:15.779Z,8.58
2019-04-10T02:16:14.596Z,8.40
2019-04-10T02:17:34.898Z,8.47
2019-04-10T02:18:14.053Z,8.55
2019-04-10T02:19:14.268Z,8.42
2019-04-10T02:20:14.618Z,8.40
2019-04-10T02:21:13.761Z,8.29
2019-04-10T02:22:14.106Z,8.27
2019-04-10T02:23:34.428Z,8.15
2019-04-10T02:24:14.540Z,8.09
2019-04-10T02:25:13.821Z,8.12
2019-04-10T02:26:13.655Z,8.11
2019-04-10T02:27:14.006Z,7.97
2019-04-10T02:28:13.091Z,7.90
2019-04-10T02:29:33.947Z,7.83
2019-04-10T02:30:16.384Z,7.81
2019-04-10T02:31:14.591Z,7.78
2019-04-10T02:32:14.424Z,7.78
2019-04-10T02:33:13.920Z,7.68
2019-04-10T02:34:13.012Z,7.64
2019-04-10T02:35:34.020Z,7.68
2019-04-10T02:36:13.048Z,7.68
2019-04-10T02:37:12.897Z,7.63
2019-04-10T02:38:32.758Z,7.70
2019-04-10T02:39:23.980Z,7.63
2019-04-10T02:40:12.806Z,7.63
2019-04-10T02:41:34.585Z,7.79
2019-04-10T02:42:11.927Z,7.82
2019-04-10T02:43:13.845Z,7.75
2019-04-10T02:44:12.322Z,7.79
2019-04-10T02:45:12.647Z,7.81
2019-04-10T02:46:11.615Z,7.85
2019-04-10T02:47:32.638Z,7.91
2019-04-10T02:48:12.188Z,7.91
2019-04-10T02:49:12.318Z,7.88
2019-04-10T02:50:12.515Z,7.88
2019-04-10T02:51:11.314Z,7.94
2019-04-10T02:52:12.849Z,7.88
2019-04-10T02:53:32.056Z,7.86
2019-04-10T02:54:11.385Z,7.85
2019-04-10T02:55:11.868Z,7.70
2019-04-10T02:56:11.811Z,7.64
2019-04-10T02:57:11.348Z,7.49
2019-04-10T02:58:10.658Z,7.41
2019-04-10T02:59:33.374Z,7.30
2019-04-10T03:00:12.738Z,7.12
2019-04-10T03:01:11.251Z,7.13
2019-04-10T03:02:11.618Z,7.05
2019-04-10T03:03:11.884Z,6.96
2019-04-10T03:04:11.868Z,7.08
2019-04-10T03:05:32.475Z,7.09
2019-04-10T03:06:11.436Z,7.12
2019-04-10T03:07:11.377Z,7.03
2019-04-10T03:08:11.246Z,7.11
2019-04-10T03:09:28.180Z,7.09
2019-04-10T03:10:20.438Z,7.20
2019-04-10T03:11:31.231Z,7.17
2019-04-10T03:12:10.449Z,7.13
2019-04-10T03:13:09.479Z,7.16
2019-04-10T03:14:10.629Z,7.09
2019-04-10T03:15:10.655Z,6.96
2019-04-10T03:16:09.286Z,7.02
2019-04-10T03:17:30.297Z,6.94
2019-04-10T03:18:09.064Z,6.96
2019-04-10T03:19:09.486Z,6.90
2019-04-10T03:20:09.985Z,6.80
2019-04-10T03:21:08.946Z,6.80
2019-04-10T03:22:09.084Z,6.86
2019-04-10T03:23:29.642Z,6.78
2019-04-10T03:24:09.527Z,6.83
2019-04-10T03:25:08.895Z,6.78
2019-04-10T03:26:09.640Z,6.69
2019-04-10T03:27:08.352Z,6.60
2019-04-10T03:28:09.111Z,6.69
2019-04-10T03:29:29.626Z,6.55
2019-04-10T03:30:10.142Z,6.47
2019-04-10T03:31:08.189Z,6.36
2019-04-10T03:32:07.951Z,6.37
2019-04-10T03:33:12.289Z,6.30
2019-04-10T03:34:09.226Z,6.27
2019-04-10T03:35:28.775Z,6.24
2019-04-10T03:36:07.620Z,6.34
2019-04-10T03:37:07.698Z,6.37
2019-04-10T03:38:07.881Z,6.30
2019-04-10T03:39:07.961Z,6.37
2019-04-10T03:40:07.288Z,6.37
2019-04-10T03:41:28.297Z,6.32
2019-04-10T03:42:07.135Z,6.41
2019-04-10T03:43:07.694Z,6.33
2019-04-10T03:44:08.058Z,6.34
2019-04-10T03:45:07.549Z,6.44
2019-04-10T03:46:06.811Z,6.44
2019-04-10T03:47:27.824Z,6.44
2019-04-10T03:48:06.658Z,6.50
2019-04-10T03:49:06.580Z,6.52
2019-04-10T03:50:06.713Z,6.62
2019-04-10T03:51:06.419Z,6.69
2019-04-10T03:52:07.243Z,6.63
2019-04-10T03:53:27.233Z,6.68
2019-04-10T03:54:06.870Z,6.60
2019-04-10T03:55:06.087Z,6.51
2019-04-10T03:56:06.022Z,6.57
2019-04-10T03:57:06.656Z,6.62
2019-04-10T03:58:05.888Z,6.60
2019-04-10T03:59:26.746Z,6.55
2019-04-10T04:00:05.785Z,6.55
2019-04-10T04:01:05.622Z,6.51
2019-04-10T04:02:05.524Z,6.55
2019-04-10T04:03:06.414Z,6.54
2019-04-10T04:04:05.374Z,6.57
2019-04-10T04:05:26.671Z,6.54
2019-04-10T04:06:05.209Z,6.51
2019-04-10T04:07:05.226Z,6.44
2019-04-10T04:08:05.524Z,6.45
2019-04-10T04:09:09.381Z,6.50
2019-04-10T04:10:04.893Z,6.47
2019-04-10T04:11:26.006Z,6.45
2019-04-10T04:12:04.730Z,6.47
2019-04-10T04:13:06.027Z,6.45
2019-04-10T04:14:04.559Z,6.54
2019-04-10T04:15:05.388Z,6.41
2019-04-10T04:16:04.398Z,6.32
2019-04-10T04:17:26.244Z,6.29
2019-04-10T04:18:04.527Z,6.29
2019-04-10T04:19:04.190Z,6.24
2019-04-10T04:20:04.421Z,6.34
2019-04-10T04:21:04.104Z,6.32
2019-04-10T04:22:04.068Z,6.33
2019-04-10T04:23:25.755Z,6.24
2019-04-10T04:24:03.762Z,6.27
2019-04-10T04:25:04.582Z,6.13
2019-04-10T04:26:03.593Z,6.06
2019-04-10T04:27:04.723Z,5.89
2019-04-10T04:28:04.551Z,5.92
2019-04-10T04:29:24.723Z,5.97
2019-04-10T04:30:04.225Z,5.99
2019-04-10T04:31:03.210Z,5.99
2019-04-10T04:32:03.109Z,5.93
2019-04-10T04:33:03.039Z,5.97
2019-04-10T04:34:03.940Z,6.04
2019-04-10T04:35:23.963Z,6.06
2019-04-10T04:36:02.795Z,6.06
2019-04-10T04:37:02.716Z,6.06
2019-04-10T04:38:02.638Z,6.11
2019-04-10T04:39:12.796Z,6.10
2019-04-10T04:40:03.060Z,6.14
2019-04-10T04:41:23.495Z,6.27
2019-04-10T04:42:03.065Z,6.21
2019-04-10T04:43:02.318Z,6.30
2019-04-10T04:44:02.138Z,6.36
2019-04-10T04:45:03.055Z,6.37
2019-04-10T04:46:02.224Z,6.42
2019-04-10T04:47:22.926Z,6.50
2019-04-10T04:48:01.899Z,6.51
2019-04-10T04:49:02.591Z,6.63
2019-04-10T04:50:01.656Z,6.57
2019-04-10T04:51:01.646Z,6.69
2019-04-10T04:52:02.518Z,6.68
2019-04-10T04:53:22.432Z,6.76
2019-04-10T04:54:01.468Z,6.70
2019-04-10T04:55:01.964Z,6.70
2019-04-10T04:56:01.760Z,6.70
2019-04-10T04:57:01.284Z,6.69
2019-04-10T04:58:01.965Z,6.65
2019-04-10T04:59:21.915Z,6.66
2019-04-10T05:00:03.300Z,6.72
2019-04-10T05:01:00.772Z,6.66
2019-04-10T05:02:08.794Z,6.75
2019-04-10T05:03:00.612Z,6.73
2019-04-10T05:04:02.558Z,6.76
2019-04-10T05:05:21.435Z,6.72
2019-04-10T05:06:00.519Z,6.73
2019-04-10T05:07:00.283Z,6.86
2019-04-10T05:08:02.943Z,6.75
2019-04-10T05:09:00.134Z,6.80
2019-04-10T05:10:01.665Z,6.73
2019-04-10T05:11:20.960Z,6.78
2019-04-10T05:12:00.631Z,6.83
2019-04-10T05:12:59.987Z,6.75
2019-04-10T05:13:59.858Z,6.87
2019-04-10T05:15:00.373Z,6.84
2019-04-10T05:15:59.779Z,6.90
2019-04-10T05:17:20.460Z,6.90
2019-04-10T05:17:59.757Z,6.91
2019-04-10T05:18:59.579Z,6.94
2019-04-10T05:19:59.384Z,6.90
2019-04-10T05:20:59.170Z,6.99
2019-04-10T05:21:59.542Z,7.06
2019-04-10T05:23:19.982Z,7.03
2019-04-10T05:23:59.692Z,7.02
2019-04-10T05:24:58.840Z,7.01
2019-04-10T05:25:59.200Z,6.94
2019-04-10T05:26:59.229Z,7.01
2019-04-10T05:27:59.405Z,6.98
2019-04-10T05:29:19.677Z,6.99
2019-04-10T05:29:58.632Z,7.06
2019-04-10T05:30:58.917Z,7.05
2019-04-10T05:31:58.766Z,7.08
2019-04-10T05:32:58.202Z,7.12
2019-04-10T05:33:58.159Z,7.12
2019-04-10T05:35:19.357Z,7.06
2019-04-10T05:35:59.007Z,7.23
2019-04-10T05:36:58.830Z,7.11
2019-04-10T05:37:58.267Z,7.19
2019-04-10T05:38:57.839Z,7.27
2019-04-10T05:39:57.783Z,7.24
2019-04-10T05:41:19.590Z,7.34
2019-04-10T05:41:57.694Z,7.29
2019-04-10T05:42:57.474Z,7.29
2019-04-10T05:43:58.557Z,7.31
2019-04-10T05:44:57.232Z,7.39
2019-04-10T05:45:57.316Z,7.42
2019-04-10T05:47:19.221Z,7.44
2019-04-10T05:47:57.045Z,7.41
2019-04-10T05:48:57.902Z,7.41
2019-04-10T05:49:57.708Z,7.45
2019-04-10T05:51:03.014Z,7.52
2019-04-10T05:51:57.639Z,7.52
2019-04-10T05:53:18.436Z,7.59
2019-04-10T05:53:56.501Z,7.49
2019-04-10T05:54:57.598Z,7.62
2019-04-10T05:55:56.346Z,7.64
2019-04-10T05:56:56.369Z,7.64
2019-04-10T05:57:57.991Z,7.56
2019-04-10T05:59:17.169Z,7.67
2019-04-10T05:59:56.365Z,7.64
2019-04-10T06:00:56.838Z,7.68
2019-04-10T06:01:56.773Z,7.73
2019-04-10T06:02:56.444Z,7.79
2019-04-10T06:03:56.571Z,7.75
2019-04-10T06:05:16.697Z,7.81
2019-04-10T06:05:56.679Z,7.88
2019-04-10T06:06:55.517Z,7.85
2019-04-10T06:07:55.387Z,7.91
2019-04-10T06:08:56.172Z,7.88
2019-04-10T06:10:00.343Z,7.86
2019-04-10T06:11:17.157Z,7.86
2019-04-10T06:11:55.337Z,7.94
2019-04-10T06:12:55.072Z,7.93
2019-04-10T06:13:54.936Z,7.94
2019-04-10T06:14:54.818Z,7.96
2019-04-10T06:15:55.095Z,7.99
2019-04-10T06:17:16.430Z,7.90
2019-04-10T06:17:54.664Z,8.00
2019-04-10T06:18:55.357Z,7.99
2019-04-10T06:19:54.489Z,7.97
2019-04-10T06:20:54.565Z,8.09
2019-04-10T06:21:54.501Z,8.04
2019-04-10T06:23:15.155Z,8.09
2019-04-10T06:23:54.194Z,8.09
2019-04-10T06:24:54.387Z,8.11
2019-04-10T06:25:54.178Z,8.11
2019-04-10T06:26:54.091Z,8.07
2019-04-10T06:27:53.928Z,8.18
2019-04-10T06:29:14.947Z,8.22
2019-04-10T06:29:53.703Z,8.24
2019-04-10T06:30:54.496Z,8.22
2019-04-10T06:31:54.765Z,8.21
2019-04-10T06:32:53.849Z,8.30
2019-04-10T06:33:53.357Z,8.30
2019-04-10T06:35:14.196Z,8.34
2019-04-10T06:35:53.235Z,8.37
2019-04-10T06:36:53.486Z,8.39
2019-04-10T06:37:53.039Z,8.47
2019-04-10T06:38:53.095Z,8.43
2019-04-10T06:40:05.115Z,8.51
2019-04-10T06:41:16.102Z,8.52
2019-04-10T06:41:52.784Z,8.44
2019-04-10T06:42:54.683Z,8.52
2019-04-10T06:43:53.126Z,8.60
2019-04-10T06:44:52.436Z,8.61
2019-04-10T06:45:52.440Z,8.69
2019-04-10T06:47:13.849Z,8.70
2019-04-10T06:47:52.967Z,8.62
2019-04-10T06:48:52.122Z,8.69
2019-04-10T06:49:52.612Z,8.77
2019-04-10T06:50:51.941Z,8.76
2019-04-10T06:51:51.903Z,8.73
2019-04-10T06:53:14.653Z,8.80
2019-04-10T06:54:00.954Z,8.82
2019-04-10T06:54:51.624Z,8.93
2019-04-10T06:55:52.396Z,8.97
2019-04-10T06:56:52.416Z,9.05
2019-04-10T06:57:57.041Z,9.12
2019-04-10T06:59:12.325Z,9.14
2019-04-10T06:59:52.342Z,9.17
2019-04-10T07:00:53.211Z,9.24
2019-04-10T07:01:54.514Z,9.14
2019-04-10T07:02:50.982Z,9.27
2019-04-10T07:04:00.453Z,9.35
2019-04-10T07:05:12.370Z,9.31
2019-04-10T07:06:03.415Z,9.37
2019-04-10T07:07:00.147Z,9.42
2019-04-10T07:07:54.261Z,9.32
2019-04-10T07:08:53.343Z,9.37
2019-04-10T07:09:54.472Z,9.35
2019-04-10T07:11:13.128Z,9.40
2019-04-10T07:11:55.540Z,9.40
2019-04-10T07:12:51.195Z,9.60
2019-04-10T07:13:51.212Z,9.60
2019-04-10T07:14:51.565Z,9.56
2019-04-10T07:15:54.480Z,9.72
2019-04-10T07:17:13.854Z,9.61
2019-04-10T07:17:49.789Z,9.78
2019-04-10T07:18:50.995Z,9.79
2019-04-10T07:19:49.634Z,9.82
2019-04-10T07:20:50.396Z,9.93
2019-04-10T07:21:49.473Z,10.03
2019-04-10T07:23:13.857Z,10.00
2019-04-10T07:23:49.310Z,10.06
2019-04-10T07:24:51.759Z,10.10
2019-04-10T07:25:49.943Z,10.07
2019-04-10T07:26:50.776Z,10.06
2019-04-10T07:27:49.000Z,10.04
2019-04-10T07:29:10.952Z,10.11
2019-04-10T07:29:50.987Z,10.13
2019-04-10T07:30:48.822Z,10.07
2019-04-10T07:31:48.848Z,10.16
2019-04-10T07:32:49.196Z,10.10
2019-04-10T07:33:50.459Z,10.22
2019-04-10T07:35:09.539Z,10.26
2019-04-10T07:35:48.358Z,10.36
2019-04-10T07:36:48.359Z,10.47
2019-04-10T07:37:51.575Z,10.56
2019-04-10T07:38:48.910Z,10.56
2019-04-10T07:39:48.891Z,10.69
2019-04-10T07:41:15.431Z,10.77
2019-04-10T07:41:47.881Z,10.84
2019-04-10T07:42:48.532Z,10.87
2019-04-10T07:43:52.815Z,10.98
2019-04-10T07:44:47.698Z,10.96
2019-04-10T07:45:47.630Z,10.93
2019-04-10T07:47:08.596Z,11.05
2019-04-10T07:47:48.310Z,11.00
2019-04-10T07:48:47.413Z,11.10
2019-04-10T07:49:48.248Z,11.13
2019-04-10T07:50:48.293Z,11.17
2019-04-10T07:51:48.478Z,11.21
2019-04-10T07:53:08.380Z,11.28
2019-04-10T07:53:47.014Z,11.39
2019-04-10T07:54:46.943Z,11.35
2019-04-10T07:55:58.413Z,11.53
2019-04-10T07:56:47.254Z,11.53
2019-04-10T07:57:48.569Z,11.59
2019-04-10T07:59:08.711Z,11.68
2019-04-10T07:59:46.562Z,11.64
2019-04-10T08:00:46.981Z,11.69
2019-04-10T08:01:47.369Z,11.65
2019-04-10T08:02:46.918Z,11.69
2019-04-10T08:03:46.540Z,11.69
2019-04-10T08:05:08.060Z,11.59
2019-04-10T08:05:46.127Z,11.57
2019-04-10T08:06:46.843Z,11.56
2019-04-10T08:07:45.907Z,11.68
2019-04-10T08:08:46.654Z,11.74
2019-04-10T08:09:46.418Z,11.81
2019-04-10T08:11:07.162Z,11.84
2019-04-10T08:11:46.761Z,11.81
2019-04-10T08:12:50.200Z,11.98
2019-04-10T08:13:45.436Z,11.97
2019-04-10T08:14:46.329Z,12.09
2019-04-10T08:15:45.409Z,12.16
2019-04-10T08:17:06.123Z,12.19
2019-04-10T08:17:48.233Z,12.21
2019-04-10T08:18:45.703Z,12.31
2019-04-10T08:19:45.288Z,12.31
2019-04-10T08:20:44.824Z,12.46
2019-04-10T08:21:44.767Z,12.53
2019-04-10T08:23:07.474Z,12.48
2019-04-10T08:23:44.687Z,12.56
2019-04-10T08:24:46.190Z,12.59
2019-04-10T08:25:44.491Z,12.60
2019-04-10T08:26:45.122Z,12.73
2019-04-10T08:27:44.302Z,12.78
2019-04-10T08:29:05.743Z,12.89
2019-04-10T08:29:44.210Z,12.91
2019-04-10T08:30:44.054Z,12.89
2019-04-10T08:31:44.289Z,13.11
2019-04-10T08:32:53.412Z,13.04
2019-04-10T08:33:44.114Z,13.14
2019-04-10T08:35:04.835Z,13.14
2019-04-10T08:35:43.676Z,13.27
2019-04-10T08:36:43.664Z,13.38
2019-04-10T08:37:43.583Z,13.40
2019-04-10T08:38:43.422Z,13.47
2019-04-10T08:39:46.515Z,13.45
2019-04-10T08:41:05.118Z,13.44
2019-04-10T08:41:43.766Z,13.41
2019-04-10T08:42:44.992Z,13.41
2019-04-10T08:43:43.085Z,13.52
2019-04-10T08:44:42.963Z,13.47
2019-04-10T08:45:48.652Z,13.71
2019-04-10T08:47:03.794Z,13.68
2019-04-10T08:47:42.807Z,13.86
2019-04-10T08:48:43.393Z,13.95
2019-04-10T08:49:43.236Z,13.95
2019-04-10T08:50:42.622Z,13.96
2019-04-10T08:51:43.622Z,14.01
2019-04-10T08:53:04.087Z,14.09
2019-04-10T08:53:42.506Z,14.13
2019-04-10T08:54:42.558Z,14.01
2019-04-10T08:55:42.178Z,13.92
2019-04-10T08:56:42.818Z,13.96
2019-04-10T08:57:41.960Z,13.94
2019-04-10T08:59:03.432Z,13.99
2019-04-10T08:59:44.116Z,13.99
2019-04-10T09:00:42.759Z,14.09
2019-04-10T09:01:41.782Z,14.16
2019-04-10T09:02:42.339Z,14.05
2019-04-10T09:03:41.496Z,14.02
2019-04-10T09:05:03.539Z,14.11
2019-04-10T09:05:41.349Z,14.11
2019-04-10T09:06:41.823Z,14.17
2019-04-10T09:07:41.216Z,14.28
2019-04-10T09:08:43.482Z,14.23
2019-04-10T09:09:41.542Z,14.35
2019-04-10T09:11:02.951Z,14.35
2019-04-10T09:11:41.048Z,14.46
2019-04-10T09:12:41.125Z,14.39
2019-04-10T09:13:40.947Z,14.53
2019-04-10T09:14:41.268Z,14.57
2019-04-10T09:15:40.581Z,14.61
2019-04-10T09:17:02.754Z,14.65
2019-04-10T09:17:41.653Z,14.61
2019-04-10T09:18:41.208Z,14.59
2019-04-10T09:19:40.357Z,14.57
2019-04-10T09:20:40.587Z,14.56
2019-04-10T09:21:40.274Z,14.57
2019-04-10T09:23:20.059Z,14.36
2019-04-10T09:23:48.273Z,14.31
2019-04-10T09:24:39.887Z,14.31
2019-04-10T09:25:39.896Z,14.34
2019-04-10T09:26:40.310Z,14.46
2019-04-10T09:27:39.989Z,14.52
2019-04-10T09:29:00.555Z,14.61
2019-04-10T09:29:40.355Z,14.69
2019-04-10T09:30:40.669Z,14.93
2019-04-10T09:31:40.028Z,14.87
2019-04-10T09:32:39.276Z,14.91
2019-04-10T09:33:39.333Z,14.95
2019-04-10T09:35:00.300Z,15.12
2019-04-10T09:35:39.133Z,15.13
2019-04-10T09:36:39.644Z,15.15
2019-04-10T09:37:39.894Z,15.15
2019-04-10T09:38:39.054Z,15.15
2019-04-10T09:39:39.186Z,15.26
2019-04-10T09:40:59.644Z,15.26
2019-04-10T09:41:38.673Z,15.24
2019-04-10T09:42:39.561Z,15.33
2019-04-10T09:43:38.580Z,15.24
2019-04-10T09:44:38.359Z,15.27
2019-04-10T09:45:39.261Z,15.27
2019-04-10T09:47:00.017Z,15.38
2019-04-10T09:47:38.302Z,15.49
2019-04-10T09:48:38.057Z,15.28
2019-04-10T09:49:42.997Z,15.34
2019-04-10T09:50:37.905Z,15.42
2019-04-10T09:51:38.297Z,15.51
2019-04-10T09:52:59.906Z,15.46
2019-04-10T09:53:37.827Z,15.61
2019-04-10T09:54:38.281Z,15.64
2019-04-10T09:55:38.320Z,15.61
2019-04-10T09:56:38.478Z,15.71
2019-04-10T09:57:37.673Z,15.75
2019-04-10T09:58:58.802Z,15.81
2019-04-10T09:59:39.662Z,15.86
2019-04-10T10:00:38.184Z,15.92
2019-04-10T10:01:37.937Z,15.78
2019-04-10T10:02:37.967Z,15.83
2019-04-10T10:03:37.086Z,15.81
2019-04-10T10:04:57.866Z,15.88
2019-04-10T10:05:36.961Z,15.92
2019-04-10T10:06:38.086Z,16.01
2019-04-10T10:07:36.895Z,15.94
2019-04-10T10:08:36.544Z,15.97
2019-04-10T10:09:36.648Z,16.00
2019-04-10T10:10:57.646Z,16.01
2019-04-10T10:11:36.447Z,16.06
2019-04-10T10:12:36.499Z,16.14
2019-04-10T10:13:37.271Z,16.10
2019-04-10T10:14:36.076Z,16.18
2019-04-10T10:15:36.136Z,16.07
2019-04-10T10:16:57.980Z,16.16
2019-04-10T10:17:36.960Z,16.07
2019-04-10T10:18:35.781Z,15.91
2019-04-10T10:19:36.330Z,16.01
2019-04-10T10:20:35.662Z,16.00
2019-04-10T10:21:36.621Z,16.10
2019-04-10T10:22:56.457Z,16.03
2019-04-10T10:23:36.084Z,16.04
2019-04-10T10:24:35.323Z,16.01
2019-04-10T10:25:35.407Z,15.81
2019-04-10T10:26:36.364Z,15.67
2019-04-10T10:27:35.285Z,15.66
2019-04-10T10:28:56.496Z,15.59
2019-04-10T10:29:35.640Z,15.59
2019-04-10T10:30:35.595Z,15.57
2019-04-10T10:31:35.963Z,15.60
2019-04-10T10:32:35.144Z,15.53
2019-04-10T10:33:34.727Z,15.60
2019-04-10T10:34:55.602Z,15.55
2019-04-10T10:35:35.484Z,15.53
2019-04-10T10:36:39.468Z,15.57
2019-04-10T10:37:34.571Z,15.48
2019-04-10T10:38:34.889Z,15.51
2019-04-10T10:39:34.932Z,15.43
2019-04-10T10:40:55.122Z,15.38
2019-04-10T10:41:34.172Z,15.42
2019-04-10T10:42:36.998Z,15.45
2019-04-10T10:43:34.288Z,15.35
2019-04-10T10:44:34.167Z,15.43
2019-04-10T10:45:34.663Z,15.39
2019-04-10T10:46:55.678Z,15.41
2019-04-10T10:47:33.698Z,15.39
2019-04-10T10:48:33.755Z,15.45
2019-04-10T10:49:34.695Z,15.46
2019-04-10T10:50:33.369Z,15.49
2019-04-10T10:51:33.323Z,15.46
2019-04-10T10:52:54.209Z,15.57
2019-04-10T10:53:34.466Z,15.46
2019-04-10T10:54:33.061Z,15.33
2019-04-10T10:55:33.791Z,15.31
2019-04-10T10:56:33.870Z,15.38
2019-04-10T10:57:33.348Z,15.53
2019-04-10T10:58:56.250Z,15.43
2019-04-10T10:59:33.533Z,15.52
2019-04-10T11:00:33.552Z,15.51
2019-04-10T11:01:32.682Z,15.60
2019-04-10T11:02:32.478Z,15.61
2019-04-10T11:03:32.472Z,15.73
2019-04-10T11:04:53.889Z,15.68
2019-04-10T11:05:33.255Z,15.57
2019-04-10T11:06:33.171Z,15.59
2019-04-10T11:07:32.977Z,15.55
2019-04-10T11:08:32.244Z,15.59
2019-04-10T11:09:32.593Z,15.60
2019-04-10T11:11:32.572Z,15.55
2019-04-10T11:12:31.717Z,15.53
2019-04-10T11:13:33.053Z,15.51
2019-04-10T11:14:31.588Z,15.52
2019-04-10T11:15:32.054Z,15.51
2019-04-10T11:16:53.563Z,15.61
2019-04-10T11:17:31.595Z,15.63
2019-04-10T11:18:31.257Z,15.70
2019-04-10T11:19:31.270Z,15.79
2019-04-10T11:20:32.203Z,15.88
2019-04-10T11:21:32.393Z,15.88
2019-04-10T11:22:51.958Z,15.92
2019-04-10T11:23:30.979Z,16.03
2019-04-10T11:24:31.549Z,16.04
2019-04-10T11:25:30.787Z,16.00
2019-04-10T11:26:30.657Z,16.10
2019-04-10T11:27:31.796Z,16.14
2019-04-10T11:28:51.498Z,16.08
2019-04-10T11:29:31.497Z,16.20
2019-04-10T11:30:30.352Z,16.10
2019-04-10T11:31:31.380Z,16.16
2019-04-10T11:32:30.460Z,16.14
2019-04-10T11:33:30.740Z,16.12
2019-04-10T11:34:51.034Z,16.33
2019-04-10T11:35:31.673Z,16.33
2019-04-10T11:36:30.094Z,16.35
2019-04-10T11:38:29.876Z,16.33
2019-04-10T11:39:33.061Z,16.33
2019-04-10T11:40:52.166Z,16.38
2019-04-10T11:41:31.123Z,16.47
2019-04-10T11:42:31.787Z,16.59
2019-04-10T11:43:30.209Z,16.59
2019-04-10T11:44:29.783Z,16.41
2019-04-10T11:45:39.325Z,16.52
2019-04-10T11:46:52.685Z,16.56
2019-04-10T11:47:29.860Z,16.66
2019-04-10T11:48:29.461Z,16.67
2019-04-10T11:49:29.542Z,16.75
2019-04-10T11:50:30.014Z,16.82
2019-04-10T11:51:31.629Z,16.92
2019-04-10T11:52:53.175Z,17.03
2019-04-10T11:53:28.790Z,17.13
2019-04-10T11:54:31.655Z,17.25
2019-04-10T11:55:29.732Z,17.23
2019-04-10T11:56:29.971Z,17.39
2019-04-10T11:57:30.824Z,17.53
2019-04-10T11:59:28.955Z,17.63
2019-04-10T12:00:30.277Z,17.67
2019-04-10T12:01:30.662Z,17.63
2019-04-10T12:02:30.426Z,17.63
2019-04-10T12:03:28.247Z,17.73
2019-04-10T12:05:29.704Z,17.71
2019-04-10T12:06:30.915Z,17.82
2019-04-10T12:07:58.602Z,17.92
2019-04-10T12:11:27.285Z,18.00
2019-04-10T12:12:27.981Z,18.03
2019-04-10T12:13:27.231Z,18.06
2019-04-10T12:14:27.875Z,17.92
2019-04-10T12:15:27.929Z,18.02
2019-04-10T12:16:47.902Z,17.94
2019-04-10T12:17:27.731Z,17.92
2019-04-10T12:18:26.841Z,18.03
2019-04-10T12:19:26.992Z,17.95
2019-04-10T12:20:27.120Z,17.95
2019-04-10T12:21:26.666Z,17.87
2019-04-10T12:22:48.312Z,17.89
2019-04-10T12:23:27.201Z,17.92
2019-04-10T12:24:26.335Z,17.95
2019-04-10T12:25:27.081Z,17.94
2019-04-10T12:26:26.180Z,17.87
2019-04-10T12:27:27.131Z,17.88
2019-04-10T12:28:47.022Z,17.96
2019-04-10T12:29:26.748Z,17.87
2019-04-10T12:30:26.932Z,17.95
2019-04-10T12:31:26.076Z,17.94
2019-04-10T12:32:25.734Z,18.09
2019-04-10T12:33:25.728Z,18.07
2019-04-10T12:34:46.601Z,18.09
2019-04-10T12:35:25.539Z,18.00
2019-04-10T12:36:26.580Z,18.09
2019-04-10T12:37:25.613Z,18.02
2019-04-10T12:38:25.566Z,18.07
2019-04-10T12:39:25.256Z,18.10
2019-04-10T12:40:46.719Z,18.10
2019-04-10T12:41:25.601Z,18.22
2019-04-10T12:42:24.999Z,18.14
2019-04-10T12:43:25.902Z,18.24
2019-04-10T12:44:25.476Z,18.27
2019-04-10T12:45:24.890Z,18.19
2019-04-10T12:46:45.731Z,18.13
2019-04-10T12:47:25.766Z,18.09
2019-04-10T12:48:24.575Z,17.95
2019-04-10T12:49:25.536Z,17.77
2019-04-10T12:50:24.720Z,17.74
2019-04-10T12:51:25.584Z,17.60
2019-04-10T12:52:45.250Z,17.66
2019-04-10T12:53:24.359Z,17.66
2019-04-10T12:54:24.110Z,17.76
2019-04-10T12:55:24.240Z,17.84
2019-04-10T12:56:24.091Z,17.91
2019-04-10T12:57:24.055Z,17.89
2019-04-10T12:58:44.809Z,17.95
2019-04-10T12:59:23.964Z,17.91
2019-04-10T13:00:23.719Z,17.98
2019-04-10T13:01:24.755Z,17.81
2019-04-10T13:02:23.529Z,17.81
2019-04-10T13:03:23.574Z,17.94
2019-04-10T13:04:44.903Z,17.92
2019-04-10T13:05:23.405Z,17.77
2019-04-10T13:06:24.184Z,17.76
2019-04-10T13:07:23.403Z,17.94
2019-04-10T13:08:31.140Z,17.88
2019-04-10T13:09:24.128Z,17.88
2019-04-10T13:10:44.005Z,17.87
2019-04-10T13:11:22.865Z,17.79